createdAt,value
2022-12-11T00:00:03.046Z,88.29
2022-12-11T00:01:03.037Z,88.29
2022-12-11T00:02:03.041Z,88.29
2022-12-11T00:03:03.092Z,88.29
2022-12-11T00:04:02.979Z,88.39
2022-12-11T00:05:02.986Z,88.39
2022-12-11T00:06:02.989Z,88.29
2022-12-11T00:07:02.961Z,88.29
2022-12-11T00:08:02.958Z,88.18
2022-12-11T00:09:02.941Z,88.18
2022-12-11T00:10:02.900Z,88.29
2022-12-11T00:11:02.971Z,88.29
2022-12-11T00:12:02.914Z,88.29
2022-12-11T00:13:02.986Z,88.24
2022-12-11T00:14:02.865Z,88.24
2022-12-11T00:15:02.897Z,88.35
2022-12-11T00:16:02.862Z,88.24
2022-12-11T00:17:02.926Z,88.14
2022-12-11T00:18:02.830Z,87.83
2022-12-11T00:19:02.862Z,87.83
2022-12-11T00:20:02.833Z,87.83
2022-12-11T00:21:02.828Z,87.93
2022-12-11T00:22:02.813Z,87.93
2022-12-11T00:23:02.836Z,87.93
2022-12-11T00:24:02.779Z,88.04
2022-12-11T00:25:02.784Z,88.14
2022-12-11T00:26:02.763Z,88.14
2022-12-11T00:27:02.758Z,88.14
2022-12-11T00:28:02.710Z,88.14
2022-12-11T00:29:02.751Z,88.04
2022-12-11T00:30:02.774Z,88.04
2022-12-11T00:31:02.769Z,87.93
2022-12-11T00:32:02.775Z,87.93
2022-12-11T00:33:02.707Z,87.93
2022-12-11T00:34:02.664Z,87.93
2022-12-11T00:35:02.707Z,87.93
2022-12-11T00:36:02.635Z,87.83
2022-12-11T00:37:02.694Z,87.72
2022-12-11T00:38:02.623Z,87.72
2022-12-11T00:39:02.644Z,87.72
2022-12-11T00:40:02.589Z,87.72
2022-12-11T00:41:02.612Z,87.51
2022-12-11T00:42:02.574Z,87.20
2022-12-11T00:43:02.616Z,86.78
2022-12-11T00:44:02.549Z,86.78
2022-12-11T00:45:02.563Z,86.78
2022-12-11T00:46:03.323Z,86.92
2022-12-11T00:47:02.547Z,87.20
2022-12-11T00:48:02.522Z,87.55
2022-12-11T00:49:02.534Z,87.66
2022-12-11T00:50:02.488Z,87.87
2022-12-11T00:51:02.498Z,88.04
2022-12-11T00:52:02.467Z,87.93
2022-12-11T00:53:02.500Z,87.83
2022-12-11T00:54:02.466Z,87.83
2022-12-11T00:55:02.464Z,87.72
2022-12-11T00:56:02.429Z,87.93
2022-12-11T00:57:02.437Z,88.04
2022-12-11T00:58:02.404Z,88.24
2022-12-11T00:59:02.442Z,88.24
2022-12-11T01:00:02.367Z,88.24
2022-12-11T01:01:02.416Z,88.10
2022-12-11T01:02:02.362Z,87.99
2022-12-11T01:03:02.485Z,87.99
2022-12-11T01:04:02.347Z,87.89
2022-12-11T01:05:02.356Z,87.58
2022-12-11T01:06:02.445Z,87.51
2022-12-11T01:07:03.283Z,87.62
2022-12-11T01:08:02.627Z,87.83
2022-12-11T01:09:02.310Z,88.14
2022-12-11T01:10:03.546Z,88.35
2022-12-11T01:11:02.291Z,88.35
2022-12-11T01:12:02.245Z,88.31
2022-12-11T01:13:03.718Z,88.31
2022-12-11T01:14:02.231Z,88.21
2022-12-11T01:15:02.268Z,88.21
2022-12-11T01:16:02.222Z,88.21
2022-12-11T01:17:02.310Z,87.89
2022-12-11T01:18:02.217Z,87.68
2022-12-11T01:19:02.209Z,87.79
2022-12-11T01:20:02.188Z,87.89
2022-12-11T01:21:02.180Z,87.99
2022-12-11T01:22:02.175Z,88.10
2022-12-11T01:23:03.403Z,87.89
2022-12-11T01:24:02.122Z,87.68
2022-12-11T01:25:03.444Z,87.47
2022-12-11T01:26:02.952Z,87.26
2022-12-11T01:27:03.519Z,87.16
2022-12-11T01:28:02.625Z,87.37
2022-12-11T01:29:02.104Z,87.68
2022-12-11T01:30:02.901Z,87.68
2022-12-11T01:31:02.154Z,87.68
2022-12-11T01:32:02.045Z,87.68
2022-12-11T01:33:02.064Z,87.58
2022-12-11T01:34:02.024Z,87.58
2022-12-11T01:35:02.758Z,87.58
2022-12-11T01:36:02.004Z,87.47
2022-12-11T01:37:02.025Z,87.26
2022-12-11T01:38:02.003Z,86.95
2022-12-11T01:39:02.022Z,86.95
2022-12-11T01:40:01.962Z,86.95
2022-12-11T01:41:07.639Z,86.95
2022-12-11T01:42:01.939Z,86.63
2022-12-11T01:43:01.969Z,86.32
2022-12-11T01:44:01.910Z,86.43
2022-12-11T01:45:01.927Z,86.11
2022-12-11T01:46:01.933Z,86.00
2022-12-11T01:47:01.930Z,86.11
2022-12-11T01:48:01.878Z,86.22
2022-12-11T01:49:01.911Z,86.11
2022-12-11T01:50:01.854Z,85.90
2022-12-11T01:51:01.904Z,85.86
2022-12-11T01:52:01.827Z,85.75
2022-12-11T01:53:01.846Z,85.55
2022-12-11T01:54:01.834Z,85.24
2022-12-11T01:55:01.852Z,85.13
2022-12-11T01:56:01.798Z,85.13
2022-12-11T01:57:01.822Z,85.13
2022-12-11T01:58:01.760Z,84.92
2022-12-11T01:59:01.781Z,84.71
2022-12-11T02:00:01.768Z,84.61
2022-12-11T02:01:01.823Z,84.71
2022-12-11T02:02:03.241Z,84.61
2022-12-11T02:03:01.772Z,84.50
2022-12-11T02:04:01.708Z,84.61
2022-12-11T02:05:01.740Z,84.81
2022-12-11T02:06:01.705Z,84.71
2022-12-11T02:07:01.722Z,84.92
2022-12-11T02:08:01.788Z,85.13
2022-12-11T02:09:01.680Z,85.34
2022-12-11T02:10:01.667Z,85.13
2022-12-11T02:11:01.686Z,84.71
2022-12-11T02:12:01.611Z,84.71
2022-12-11T02:13:01.654Z,84.81
2022-12-11T02:14:01.615Z,84.81
2022-12-11T02:15:01.698Z,85.02
2022-12-11T02:16:01.601Z,85.34
2022-12-11T02:17:01.601Z,85.55
2022-12-11T02:18:01.549Z,85.75
2022-12-11T02:19:01.573Z,85.97
2022-12-11T02:20:01.557Z,86.04
2022-12-11T02:21:01.552Z,85.97
2022-12-11T02:22:01.504Z,86.07
2022-12-11T02:23:01.529Z,85.97
2022-12-11T02:24:01.503Z,85.97
2022-12-11T02:25:01.515Z,85.86
2022-12-11T02:26:01.469Z,85.97
2022-12-11T02:27:01.496Z,86.18
2022-12-11T02:28:01.456Z,86.14
2022-12-11T02:29:01.493Z,86.14
2022-12-11T02:30:01.446Z,86.24
2022-12-11T02:31:01.515Z,86.35
2022-12-11T02:32:01.408Z,86.24
2022-12-11T02:33:01.446Z,86.04
2022-12-11T02:34:01.382Z,85.86
2022-12-11T02:35:01.418Z,85.93
2022-12-11T02:36:01.424Z,86.07
2022-12-11T02:37:01.383Z,86.24
2022-12-11T02:38:01.352Z,86.35
2022-12-11T02:39:01.359Z,86.55
2022-12-11T02:40:01.327Z,86.66
2022-12-11T02:41:01.358Z,86.66
2022-12-11T02:42:01.340Z,86.55
2022-12-11T02:43:01.319Z,86.45
2022-12-11T02:44:01.278Z,86.35
2022-12-11T02:45:01.305Z,86.14
2022-12-11T02:46:01.325Z,85.93
2022-12-11T02:47:01.283Z,85.72
2022-12-11T02:48:01.238Z,85.72
2022-12-11T02:49:01.279Z,85.51
2022-12-11T02:50:01.222Z,85.19
2022-12-11T02:51:01.250Z,85.09
2022-12-11T02:52:01.200Z,85.19
2022-12-11T02:53:01.208Z,85.41
2022-12-11T02:54:01.195Z,85.61
2022-12-11T02:55:01.198Z,85.72
2022-12-11T02:56:01.200Z,85.82
2022-12-11T02:57:01.183Z,86.04
2022-12-11T02:58:02.125Z,86.14
2022-12-11T02:59:01.446Z,86.24
2022-12-11T03:00:01.146Z,86.35
2022-12-11T03:01:01.213Z,86.55
2022-12-11T03:02:01.227Z,86.66
2022-12-11T03:03:01.103Z,86.77
2022-12-11T03:04:01.079Z,86.77
2022-12-11T03:05:01.106Z,86.87
2022-12-11T03:06:01.053Z,86.87
2022-12-11T03:07:01.076Z,86.66
2022-12-11T03:08:01.090Z,86.55
2022-12-11T03:09:01.060Z,86.45
2022-12-11T03:10:01.028Z,86.24
2022-12-11T03:11:01.021Z,86.04
2022-12-11T03:12:01.008Z,85.93
2022-12-11T03:13:01.032Z,85.93
2022-12-11T03:14:00.998Z,85.82
2022-12-11T03:15:00.980Z,85.93
2022-12-11T03:16:00.978Z,85.82
2022-12-11T03:17:00.969Z,85.51
2022-12-11T03:18:00.935Z,85.19
2022-12-11T03:19:00.936Z,85.05
2022-12-11T03:20:00.922Z,84.99
2022-12-11T03:21:00.935Z,85.09
2022-12-11T03:22:00.901Z,85.30
2022-12-11T03:23:00.888Z,85.30
2022-12-11T03:24:00.877Z,85.19
2022-12-11T03:25:00.869Z,85.16
2022-12-11T03:26:00.837Z,85.16
2022-12-11T03:27:01.387Z,85.16
2022-12-11T03:28:00.823Z,85.16
2022-12-11T03:29:00.837Z,85.36
2022-12-11T03:30:00.804Z,85.36
2022-12-11T03:31:00.861Z,85.47
2022-12-11T03:32:00.785Z,85.47
2022-12-11T03:33:00.795Z,85.47
2022-12-11T03:34:00.753Z,85.36
2022-12-11T03:35:00.779Z,85.26
2022-12-11T03:36:00.747Z,85.36
2022-12-11T03:37:00.750Z,85.36
2022-12-11T03:38:00.734Z,85.47
2022-12-11T03:39:00.753Z,85.36
2022-12-11T03:40:00.691Z,85.26
2022-12-11T03:41:00.712Z,85.05
2022-12-11T03:42:00.669Z,85.05
2022-12-11T03:43:00.690Z,85.05
2022-12-11T03:44:00.674Z,85.26
2022-12-11T03:45:00.676Z,85.26
2022-12-11T03:46:00.692Z,85.26
2022-12-11T03:47:00.640Z,85.47
2022-12-11T03:48:00.603Z,85.47
2022-12-11T03:49:00.643Z,85.36
2022-12-11T03:50:00.613Z,85.47
2022-12-11T03:51:00.589Z,85.68
2022-12-11T03:52:00.594Z,85.68
2022-12-11T03:53:00.597Z,85.78
2022-12-11T03:54:00.570Z,85.89
2022-12-11T03:55:00.575Z,85.78
2022-12-11T03:56:00.570Z,85.78
2022-12-11T03:57:00.507Z,85.78
2022-12-11T03:58:00.533Z,85.78
2022-12-11T03:59:00.504Z,85.68
2022-12-11T04:00:00.504Z,85.68
2022-12-11T04:01:00.466Z,85.68
2022-12-11T04:02:00.552Z,85.78
2022-12-11T04:03:00.445Z,85.89
2022-12-11T04:04:00.531Z,85.99
2022-12-11T04:05:00.438Z,85.99
2022-12-11T04:06:00.457Z,85.99
2022-12-11T04:07:00.404Z,85.89
2022-12-11T04:08:00.415Z,85.78
2022-12-11T04:09:00.377Z,85.58
2022-12-11T04:10:00.407Z,85.58
2022-12-11T04:11:00.376Z,85.58
2022-12-11T04:12:00.382Z,85.58
2022-12-11T04:13:00.346Z,85.36
2022-12-11T04:14:00.356Z,85.26
2022-12-11T04:15:00.319Z,85.16
2022-12-11T04:16:00.403Z,84.95
2022-12-11T04:17:00.312Z,84.74
2022-12-11T04:18:00.320Z,84.74
2022-12-11T04:19:00.321Z,85.05
2022-12-11T04:20:00.347Z,85.26
2022-12-11T04:21:00.249Z,85.47
2022-12-11T04:22:00.279Z,85.47
2022-12-11T04:23:00.231Z,85.58
2022-12-11T04:24:00.277Z,85.58
2022-12-11T04:25:00.207Z,85.58
2022-12-11T04:26:00.230Z,85.47
2022-12-11T04:27:00.188Z,85.16
2022-12-11T04:28:00.221Z,85.26
2022-12-11T04:29:00.194Z,85.36
2022-12-11T04:30:00.181Z,85.47
2022-12-11T04:31:00.178Z,85.36
2022-12-11T04:32:00.188Z,85.26
2022-12-11T04:33:00.146Z,85.36
2022-12-11T04:34:00.139Z,85.36
2022-12-11T04:35:00.123Z,85.26
2022-12-11T04:36:00.157Z,85.05
2022-12-11T04:37:00.089Z,84.74
2022-12-11T04:38:00.092Z,84.74
2022-12-11T04:39:00.070Z,84.95
2022-12-11T04:40:00.079Z,85.16
2022-12-11T04:41:00.051Z,85.26
2022-12-11T04:42:00.073Z,85.16
2022-12-11T04:43:00.025Z,84.84
2022-12-11T04:44:00.041Z,84.42
2022-12-11T04:45:00.018Z,84.22
2022-12-11T04:46:00.080Z,84.11
2022-12-11T04:47:00.005Z,84.22
2022-12-11T04:48:00.005Z,84.11
2022-12-11T04:48:59.963Z,84.00
2022-12-11T04:49:59.966Z,84.11
2022-12-11T04:50:59.936Z,84.11
2022-12-11T04:51:59.967Z,84.11
2022-12-11T04:52:59.934Z,84.00
2022-12-11T04:53:59.946Z,84.11
2022-12-11T04:54:59.894Z,84.11
2022-12-11T04:55:59.946Z,84.00
2022-12-11T04:56:59.870Z,83.90
2022-12-11T04:57:59.910Z,83.90
2022-12-11T04:58:59.846Z,83.97
2022-12-11T04:59:59.866Z,84.22
2022-12-11T05:00:59.843Z,84.17
2022-12-11T05:01:59.925Z,84.32
2022-12-11T05:02:59.939Z,84.49
2022-12-11T05:03:59.826Z,84.63
2022-12-11T05:04:59.798Z,84.63
2022-12-11T05:05:59.803Z,84.42
2022-12-11T05:06:59.766Z,83.69
2022-12-11T05:07:59.999Z,83.38
2022-12-11T05:08:59.749Z,83.48
2022-12-11T05:09:59.752Z,83.48
2022-12-11T05:10:59.715Z,83.59
2022-12-11T05:11:59.733Z,83.59
2022-12-11T05:12:59.714Z,83.48
2022-12-11T05:13:59.749Z,83.48
2022-12-11T05:14:59.680Z,83.27
2022-12-11T05:16:00.682Z,83.06
2022-12-11T05:16:59.663Z,82.86
2022-12-11T05:17:59.693Z,82.43
2022-12-11T05:18:59.635Z,82.43
2022-12-11T05:19:59.660Z,82.65
2022-12-11T05:20:59.620Z,82.86
2022-12-11T05:21:59.633Z,82.86
2022-12-11T05:22:59.623Z,82.86
2022-12-11T05:23:59.625Z,82.54
2022-12-11T05:24:59.571Z,82.75
2022-12-11T05:25:59.605Z,82.96
2022-12-11T05:26:59.553Z,82.96
2022-12-11T05:27:59.568Z,82.96
2022-12-11T05:28:59.578Z,82.86
2022-12-11T05:29:59.867Z,82.96
2022-12-11T05:30:59.569Z,83.06
2022-12-11T05:31:59.533Z,82.96
2022-12-11T05:32:59.483Z,82.75
2022-12-11T05:33:59.533Z,82.54
2022-12-11T05:34:59.461Z,82.43
2022-12-11T05:35:59.486Z,82.33
2022-12-11T05:36:59.465Z,82.23
2022-12-11T05:37:59.483Z,82.23
2022-12-11T05:38:59.444Z,82.33
2022-12-11T05:39:59.433Z,82.54
2022-12-11T05:40:59.411Z,82.33
2022-12-11T05:41:59.414Z,82.02
2022-12-11T05:42:59.385Z,81.92
2022-12-11T05:43:59.394Z,82.02
2022-12-11T05:44:59.382Z,82.23
2022-12-11T05:45:59.396Z,82.33
2022-12-11T05:46:59.437Z,82.43
2022-12-11T05:47:59.366Z,82.65
2022-12-11T05:48:59.318Z,82.86
2022-12-11T05:49:59.350Z,83.06
2022-12-11T05:50:59.318Z,82.96
2022-12-11T05:51:59.328Z,83.06
2022-12-11T05:52:59.267Z,83.17
2022-12-11T05:53:59.297Z,83.27
2022-12-11T05:54:59.265Z,83.17
2022-12-11T05:55:59.289Z,83.17
2022-12-11T05:56:59.239Z,83.17
2022-12-11T05:57:59.247Z,83.27
2022-12-11T05:58:59.219Z,83.27
2022-12-11T05:59:59.230Z,83.48
2022-12-11T06:01:00.157Z,83.59
2022-12-11T06:01:59.338Z,83.69
2022-12-11T06:02:59.404Z,83.80
2022-12-11T06:03:59.193Z,83.80
2022-12-11T06:04:59.170Z,83.90
2022-12-11T06:05:59.168Z,83.80
2022-12-11T06:06:59.121Z,83.80
2022-12-11T06:07:59.176Z,83.90
2022-12-11T06:08:59.123Z,84.11
2022-12-11T06:09:59.124Z,84.22
2022-12-11T06:10:59.091Z,84.32
2022-12-11T06:11:59.123Z,84.22
2022-12-11T06:12:59.070Z,84.32
2022-12-11T06:13:59.089Z,84.32
2022-12-11T06:14:59.045Z,84.22
2022-12-11T06:15:59.153Z,84.00
2022-12-11T06:16:59.028Z,84.11
2022-12-11T06:17:59.038Z,84.11
2022-12-11T06:18:59.005Z,84.22
2022-12-11T06:19:59.038Z,84.32
2022-12-11T06:20:59.003Z,84.53
2022-12-11T06:21:59.032Z,84.84
2022-12-11T06:22:58.961Z,84.84
2022-12-11T06:23:58.993Z,84.84
2022-12-11T06:24:58.950Z,84.84
2022-12-11T06:25:58.967Z,84.84
2022-12-11T06:26:58.929Z,84.84
2022-12-11T06:27:58.930Z,84.84
2022-12-11T06:28:58.904Z,84.95
2022-12-11T06:29:58.925Z,84.95
2022-12-11T06:30:58.877Z,84.95
2022-12-11T06:31:58.952Z,84.74
2022-12-11T06:32:58.857Z,84.59
2022-12-11T06:33:58.867Z,84.59
2022-12-11T06:34:58.856Z,84.49
2022-12-11T06:35:58.846Z,84.59
2022-12-11T06:36:58.841Z,84.70
2022-12-11T06:38:00.278Z,84.59
2022-12-11T06:38:58.808Z,84.59
2022-12-11T06:39:58.802Z,84.70
2022-12-11T06:40:58.779Z,84.80
2022-12-11T06:41:58.789Z,84.91
2022-12-11T06:42:58.750Z,85.01
2022-12-11T06:43:58.783Z,85.01
2022-12-11T06:44:58.730Z,85.12
2022-12-11T06:46:03.590Z,85.01
2022-12-11T06:46:59.729Z,84.80
2022-12-11T06:47:58.728Z,84.59
2022-12-11T06:48:58.723Z,84.49
2022-12-11T06:49:58.760Z,84.39
2022-12-11T06:50:58.713Z,84.17
2022-12-11T06:51:58.673Z,84.07
2022-12-11T06:52:58.649Z,84.07
2022-12-11T06:53:58.679Z,84.07
2022-12-11T06:54:58.625Z,84.28
2022-12-11T06:55:58.672Z,84.39
2022-12-11T06:56:58.615Z,84.49
2022-12-11T06:57:58.610Z,84.07
2022-12-11T06:59:02.857Z,84.07
2022-12-11T06:59:59.598Z,84.28
2022-12-11T07:00:58.632Z,84.39
2022-12-11T07:01:58.685Z,84.59
2022-12-11T07:02:58.541Z,84.49
2022-12-11T07:03:58.567Z,84.59
2022-12-11T07:04:58.518Z,84.59
2022-12-11T07:05:58.535Z,84.59
2022-12-11T07:06:58.502Z,84.70
2022-12-11T07:07:58.545Z,84.59
2022-12-11T07:08:58.472Z,84.59
2022-12-11T07:10:02.729Z,84.59
2022-12-11T07:10:59.457Z,84.59
2022-12-11T07:11:58.506Z,84.63
2022-12-11T07:12:58.427Z,84.74
2022-12-11T07:13:58.468Z,84.84
2022-12-11T07:14:58.410Z,85.05
2022-12-11T07:15:58.433Z,85.16
2022-12-11T07:16:58.387Z,85.16
2022-12-11T07:17:58.405Z,85.16
2022-12-11T07:18:58.397Z,85.16
2022-12-11T07:19:58.394Z,85.26
2022-12-11T07:20:58.346Z,85.33
2022-12-11T07:21:58.356Z,85.26
2022-12-11T07:22:58.318Z,85.05
2022-12-11T07:23:58.375Z,85.01
2022-12-11T07:24:58.316Z,85.16
2022-12-11T07:25:58.317Z,85.26
2022-12-11T07:26:58.307Z,85.36
2022-12-11T07:27:58.304Z,85.68
2022-12-11T07:28:58.260Z,85.68
2022-12-11T07:29:58.280Z,85.43
2022-12-11T07:30:58.283Z,85.33
2022-12-11T07:31:58.394Z,85.22
2022-12-11T07:32:58.242Z,85.12
2022-12-11T07:33:58.229Z,85.12
2022-12-11T07:34:58.190Z,85.12
2022-12-11T07:35:58.202Z,84.80
2022-12-11T07:36:58.181Z,84.80
2022-12-11T07:37:58.201Z,85.01
2022-12-11T07:38:58.145Z,85.22
2022-12-11T07:39:58.175Z,85.12
2022-12-11T07:40:58.130Z,85.01
2022-12-11T07:41:58.170Z,85.01
2022-12-11T07:42:58.112Z,85.01
2022-12-11T07:43:58.139Z,84.80
2022-12-11T07:44:58.097Z,84.80
2022-12-11T07:45:58.147Z,84.91
2022-12-11T07:46:58.067Z,85.01
2022-12-11T07:47:58.110Z,85.12
2022-12-11T07:48:58.072Z,85.22
2022-12-11T07:49:58.060Z,85.33
2022-12-11T07:50:58.021Z,85.22
2022-12-11T07:51:58.053Z,85.33
2022-12-11T07:52:58.033Z,85.43
2022-12-11T07:53:58.012Z,85.53
2022-12-11T07:54:57.990Z,85.64
2022-12-11T07:55:57.992Z,85.64
2022-12-11T07:56:57.962Z,85.64
2022-12-11T07:57:59.445Z,85.60
2022-12-11T07:58:57.948Z,85.60
2022-12-11T07:59:57.972Z,85.60
2022-12-11T08:00:57.985Z,85.60
2022-12-11T08:01:57.996Z,85.50
2022-12-11T08:02:57.915Z,85.39
2022-12-11T08:03:57.905Z,85.50
2022-12-11T08:04:57.876Z,85.60
2022-12-11T08:05:57.871Z,85.50
2022-12-11T08:06:57.876Z,85.39
2022-12-11T08:07:57.861Z,85.39
2022-12-11T08:08:57.880Z,85.39
2022-12-11T08:09:57.823Z,85.39
2022-12-11T08:10:57.858Z,85.39
2022-12-11T08:11:57.835Z,85.39
2022-12-11T08:12:57.820Z,85.39
2022-12-11T08:13:57.791Z,85.50
2022-12-11T08:14:57.797Z,85.39
2022-12-11T08:15:57.781Z,85.08
2022-12-11T08:16:57.825Z,84.97
2022-12-11T08:17:57.750Z,84.87
2022-12-11T08:18:57.773Z,84.87
2022-12-11T08:19:57.730Z,84.97
2022-12-11T08:20:57.737Z,85.18
2022-12-11T08:21:57.691Z,85.39
2022-12-11T08:22:59.355Z,85.39
2022-12-11T08:23:57.681Z,85.39
2022-12-11T08:24:57.685Z,85.39
2022-12-11T08:25:57.650Z,85.29
2022-12-11T08:26:57.693Z,85.08
2022-12-11T08:27:57.644Z,85.08
2022-12-11T08:28:57.672Z,84.97
2022-12-11T08:29:57.612Z,84.66
2022-12-11T08:30:57.721Z,84.56
2022-12-11T08:31:57.584Z,84.56
2022-12-11T08:32:57.612Z,84.56
2022-12-11T08:33:57.577Z,84.56
2022-12-11T08:34:57.584Z,84.77
2022-12-11T08:35:57.562Z,84.87
2022-12-11T08:36:57.563Z,84.97
2022-12-11T08:37:57.540Z,85.08
2022-12-11T08:38:57.538Z,85.08
2022-12-11T08:39:57.517Z,84.97
2022-12-11T08:40:57.524Z,84.87
2022-12-11T08:41:57.505Z,84.87
2022-12-11T08:42:57.512Z,84.97
2022-12-11T08:43:57.466Z,85.08
2022-12-11T08:44:57.483Z,85.18
2022-12-11T08:45:57.485Z,85.18
2022-12-11T08:46:57.464Z,84.66
2022-12-11T08:47:57.438Z,84.66
2022-12-11T08:48:57.449Z,84.87
2022-12-11T08:49:57.404Z,85.08
2022-12-11T08:50:57.408Z,84.97
2022-12-11T08:51:57.392Z,84.97
2022-12-11T08:52:57.408Z,84.97
2022-12-11T08:53:57.354Z,85.08
2022-12-11T08:54:57.378Z,85.18
2022-12-11T08:55:57.330Z,85.29
2022-12-11T08:56:58.330Z,85.29
2022-12-11T08:57:57.325Z,85.18
2022-12-11T08:58:57.340Z,85.18
2022-12-11T08:59:57.309Z,85.29
2022-12-11T09:00:57.365Z,85.29
2022-12-11T09:01:57.276Z,85.18
2022-12-11T09:02:57.355Z,85.29
2022-12-11T09:03:57.273Z,85.29
2022-12-11T09:04:57.278Z,85.39
2022-12-11T09:05:57.240Z,85.60
2022-12-11T09:06:57.279Z,85.71
2022-12-11T09:07:57.245Z,85.50
2022-12-11T09:08:57.243Z,85.29
2022-12-11T09:09:57.193Z,85.29
2022-12-11T09:10:57.220Z,85.29
2022-12-11T09:11:57.162Z,85.50
2022-12-11T09:12:57.176Z,85.60
2022-12-11T09:13:58.928Z,85.71
2022-12-11T09:14:58.205Z,85.81
2022-12-11T09:15:57.229Z,85.71
2022-12-11T09:16:57.135Z,85.81
2022-12-11T09:17:57.112Z,85.81
2022-12-11T09:18:57.110Z,85.71
2022-12-11T09:19:57.088Z,85.60
2022-12-11T09:20:57.094Z,85.60
2022-12-11T09:21:57.095Z,85.71
2022-12-11T09:22:57.087Z,85.81
2022-12-11T09:23:57.049Z,85.91
2022-12-11T09:24:57.057Z,85.88
2022-12-11T09:25:57.017Z,85.88
2022-12-11T09:26:57.023Z,85.67
2022-12-11T09:27:57.031Z,85.56
2022-12-11T09:28:57.034Z,85.35
2022-12-11T09:29:56.964Z,85.14
2022-12-11T09:30:57.094Z,85.14
2022-12-11T09:31:56.955Z,85.14
2022-12-11T09:32:56.964Z,85.25
2022-12-11T09:33:56.958Z,85.14
2022-12-11T09:34:56.968Z,85.14
2022-12-11T09:35:56.935Z,85.25
2022-12-11T09:36:57.333Z,85.46
2022-12-11T09:37:56.911Z,86.29
2022-12-11T09:38:56.906Z,86.92
2022-12-11T09:39:56.856Z,86.29
2022-12-11T09:40:56.875Z,85.98
2022-12-11T09:41:56.889Z,85.67
2022-12-11T09:42:56.916Z,85.56
2022-12-11T09:43:56.875Z,85.67
2022-12-11T09:44:56.827Z,85.77
2022-12-11T09:45:56.832Z,85.77
2022-12-11T09:46:56.916Z,85.77
2022-12-11T09:47:56.777Z,85.56
2022-12-11T09:48:56.814Z,85.35
2022-12-11T09:49:56.754Z,85.25
2022-12-11T09:50:56.784Z,85.35
2022-12-11T09:51:56.741Z,85.56
2022-12-11T09:52:56.747Z,85.77
2022-12-11T09:53:56.730Z,85.77
2022-12-11T09:54:56.749Z,85.56
2022-12-11T09:55:56.710Z,85.67
2022-12-11T09:56:56.710Z,85.67
2022-12-11T09:57:56.681Z,85.77
2022-12-11T09:58:56.725Z,85.88
2022-12-11T10:00:02.761Z,85.98
2022-12-11T10:00:57.674Z,85.98
2022-12-11T10:01:56.682Z,85.88
2022-12-11T10:02:56.775Z,85.98
2022-12-11T10:03:56.633Z,86.08
2022-12-11T10:04:56.621Z,86.19
2022-12-11T10:06:01.145Z,86.19
2022-12-11T10:06:57.620Z,86.29
2022-12-11T10:07:56.679Z,86.40
2022-12-11T10:08:56.603Z,86.36
2022-12-11T10:09:56.548Z,86.05
2022-12-11T10:10:56.587Z,85.83
2022-12-11T10:11:57.115Z,85.94
2022-12-11T10:12:56.534Z,86.15
2022-12-11T10:13:56.523Z,85.94
2022-12-11T10:14:56.608Z,85.98
2022-12-11T10:15:56.648Z,86.19
2022-12-11T10:16:56.511Z,86.08
2022-12-11T10:18:01.301Z,86.19
2022-12-11T10:18:57.470Z,86.08
2022-12-11T10:19:56.816Z,86.19
2022-12-11T10:20:56.453Z,86.15
2022-12-11T10:21:57.398Z,86.15
2022-12-11T10:22:56.438Z,86.25
2022-12-11T10:23:56.424Z,86.25
2022-12-11T10:25:12.585Z,86.15
2022-12-11T10:25:57.458Z,86.15
2022-12-11T10:26:56.410Z,86.25
2022-12-11T10:27:56.361Z,85.98
2022-12-11T10:28:56.362Z,86.19
2022-12-11T10:29:56.363Z,86.51
2022-12-11T10:30:56.402Z,86.71
2022-12-11T10:31:56.322Z,86.82
2022-12-11T10:32:56.322Z,86.77
2022-12-11T10:33:56.288Z,86.77
2022-12-11T10:34:56.338Z,86.77
2022-12-11T10:35:56.289Z,89.81
2022-12-11T10:37:00.435Z,90.70
2022-12-11T10:37:56.333Z,91.54
2022-12-11T10:38:56.274Z,88.99
2022-12-11T10:39:56.242Z,87.15
2022-12-11T10:40:56.278Z,86.28
2022-12-11T10:41:56.200Z,86.59
2022-12-11T10:42:56.222Z,86.28
2022-12-11T10:43:56.201Z,85.55
2022-12-11T10:44:56.211Z,85.27
2022-12-11T10:45:56.252Z,85.17
2022-12-11T10:46:56.184Z,85.06
2022-12-11T10:47:56.132Z,85.06
2022-12-11T10:48:56.182Z,85.06
2022-12-11T10:49:56.128Z,84.86
2022-12-11T10:50:56.132Z,84.86
2022-12-11T10:51:56.098Z,84.96
2022-12-11T10:52:56.115Z,85.21
2022-12-11T10:53:56.082Z,85.21
2022-12-11T10:54:56.100Z,85.21
2022-12-11T10:55:56.143Z,85.42
2022-12-11T10:56:56.069Z,87.78
2022-12-11T10:57:56.056Z,88.51
2022-12-11T10:58:56.050Z,87.37
2022-12-11T10:59:56.035Z,86.32
2022-12-11T11:00:56.054Z,85.80
2022-12-11T11:01:56.044Z,85.27
2022-12-11T11:02:56.072Z,84.96
2022-12-11T11:03:55.970Z,85.38
2022-12-11T11:04:55.992Z,85.59
2022-12-11T11:05:56.031Z,85.80
2022-12-11T11:06:55.995Z,85.80
2022-12-11T11:07:55.976Z,85.90
2022-12-11T11:08:55.949Z,85.90
2022-12-11T11:09:55.917Z,85.80
2022-12-11T11:10:55.915Z,85.69
2022-12-11T11:11:55.883Z,85.59
2022-12-11T11:12:55.902Z,85.59
2022-12-11T11:13:55.869Z,85.49
2022-12-11T11:14:55.896Z,85.52
2022-12-11T11:15:55.953Z,85.52
2022-12-11T11:16:55.872Z,85.63
2022-12-11T11:17:56.313Z,85.73
2022-12-11T11:18:55.830Z,85.83
2022-12-11T11:19:55.802Z,86.15
2022-12-11T11:20:55.826Z,86.36
2022-12-11T11:21:55.801Z,86.46
2022-12-11T11:22:55.814Z,86.36
2022-12-11T11:23:55.750Z,86.25
2022-12-11T11:24:55.770Z,86.15
2022-12-11T11:25:55.872Z,86.15
2022-12-11T11:27:12.733Z,86.25
2022-12-11T11:27:56.729Z,86.46
2022-12-11T11:28:55.734Z,86.46
2022-12-11T11:29:55.728Z,86.46
2022-12-11T11:30:55.764Z,86.36
2022-12-11T11:31:55.671Z,86.25
2022-12-11T11:32:55.696Z,86.15
2022-12-11T11:33:55.671Z,86.05
2022-12-11T11:34:55.662Z,86.15
2022-12-11T11:35:55.644Z,86.15
2022-12-11T11:36:55.651Z,86.15
2022-12-11T11:37:55.622Z,86.25
2022-12-11T11:38:55.636Z,86.36
2022-12-11T11:39:55.601Z,86.15
2022-12-11T11:41:00.792Z,86.15
2022-12-11T11:41:56.563Z,86.05
2022-12-11T11:42:55.584Z,85.83
2022-12-11T11:43:55.568Z,85.83
2022-12-11T11:44:55.563Z,85.94
2022-12-11T11:45:55.526Z,85.73
2022-12-11T11:46:55.657Z,85.94
2022-12-11T11:47:55.515Z,86.36
2022-12-11T11:48:55.526Z,86.77
2022-12-11T11:49:55.477Z,87.19
2022-12-11T11:50:55.506Z,87.30
2022-12-11T11:51:55.475Z,87.19
2022-12-11T11:52:55.484Z,86.88
2022-12-11T11:53:55.444Z,86.88
2022-12-11T11:54:55.460Z,86.88
2022-12-11T11:55:55.452Z,86.99
2022-12-11T11:56:55.432Z,86.99
2022-12-11T11:57:55.400Z,86.99
2022-12-11T11:58:55.411Z,86.99
2022-12-11T11:59:55.390Z,86.99
2022-12-11T12:00:55.407Z,87.05
2022-12-11T12:01:55.357Z,86.84
2022-12-11T12:02:55.450Z,86.15
2022-12-11T12:03:55.328Z,85.94
2022-12-11T12:04:55.350Z,85.94
2022-12-11T12:05:55.353Z,86.05
2022-12-11T12:06:55.383Z,86.25
2022-12-11T12:07:55.350Z,86.57
2022-12-11T12:08:55.300Z,86.88
2022-12-11T12:09:55.311Z,87.09
2022-12-11T12:10:55.291Z,87.09
2022-12-11T12:11:55.262Z,87.19
2022-12-11T12:12:55.274Z,87.19
2022-12-11T12:13:55.244Z,87.09
2022-12-11T12:14:55.240Z,86.88
2022-12-11T12:15:55.220Z,86.77
2022-12-11T12:16:55.243Z,86.77
2022-12-11T12:17:56.291Z,86.63
2022-12-11T12:18:55.226Z,86.63
2022-12-11T12:19:55.187Z,86.53
2022-12-11T12:20:55.174Z,86.53
2022-12-11T12:21:55.182Z,86.53
2022-12-11T12:22:55.144Z,86.43
2022-12-11T12:23:55.131Z,86.43
2022-12-11T12:24:55.139Z,86.43
2022-12-11T12:25:55.119Z,86.67
2022-12-11T12:26:55.080Z,86.84
2022-12-11T12:27:55.100Z,86.94
2022-12-11T12:28:55.106Z,86.74
2022-12-11T12:29:55.092Z,86.74
2022-12-11T12:30:55.065Z,86.94
2022-12-11T12:31:55.125Z,87.15
2022-12-11T12:32:55.067Z,87.37
2022-12-11T12:33:55.035Z,87.37
2022-12-11T12:34:54.996Z,87.26
2022-12-11T12:35:55.021Z,87.15
2022-12-11T12:36:54.987Z,87.15
2022-12-11T12:37:54.995Z,87.15
2022-12-11T12:38:54.955Z,87.05
2022-12-11T12:39:55.004Z,87.05
2022-12-11T12:40:55.012Z,87.05
2022-12-11T12:41:54.947Z,87.05
2022-12-11T12:42:54.938Z,87.05
2022-12-11T12:43:54.991Z,87.05
2022-12-11T12:44:54.911Z,87.05
2022-12-11T12:45:54.960Z,86.94
2022-12-11T12:46:54.874Z,87.05
2022-12-11T12:47:54.889Z,86.94
2022-12-11T12:48:54.849Z,86.94
2022-12-11T12:49:54.906Z,86.94
2022-12-11T12:50:54.833Z,86.94
2022-12-11T12:51:54.854Z,86.84